Time;durP1;ratioP1;P1;durP2;ratioP2;P2;SDS_P1;SDS_P2;PMS_P1;PMS_P2;Temp;Humidity;BMP_temperature;BMP_pressure;BME280_temperature;BME280_humidity;BME280_pressure;Samples;Min_cycle;Max_cycle;Signal;HPM_P1;HPM_P2
2022/11/23 00:01:56;;;;;;;12.85;5.90;;;;;;;;;;5061301;28;20056;-92
2022/11/23 00:04:24;;;;;;;;;;;;;;;;;;5080394;28;20044;-91
2022/11/23 00:06:52;;;;;;;8.15;4.55;;;;;;;;;;5101527;28;20300;-91
2022/11/23 00:09:26;;;;;;;7.90;5.03;;;;;;;;;;5082446;28;20642;-92
2022/11/23 00:11:59;;;;;;;8.63;5.28;;;;;;;;;;5100439;28;20655;-92
2022/11/23 00:14:26;;;;;;;;;;;;;;;;;;5074914;28;20488;-92
2022/11/23 00:16:54;;;;;;;9.25;5.32;;;;;;;;;;5076616;28;19920;-92
2022/11/23 00:19:39;;;;;;;10.63;4.70;;;;;;;;;;5084089;28;20060;-92
2022/11/23 00:22:12;;;;;;;7.22;4.55;;;;;;;;;;5072844;28;20056;-92
2022/11/23 00:24:40;;;;;;;;;;;;;;;;;;5067064;28;20052;-90
2022/11/23 00:27:09;;;;;;;8.68;4.25;;;;;;;;;;5089186;28;20288;-91
2022/11/23 00:29:42;;;;;;;7.97;4.78;;;;;;;;;;5094480;28;20392;-92
2022/11/23 00:32:09;;;;;;;;;;;;;;;;;;5096952;28;20055;-92
2022/11/23 00:34:37;;;;;;;;;;;;;;;;;;5064853;28;19921;-91
2022/11/23 00:37:05;;;;;;;7.88;4.70;;;;;;;;;;5100527;28;19928;-91
2022/11/23 00:39:37;;;;;;;6.72;4.43;;;;;;;;;;5050078;28;20508;-90
2022/11/23 00:42:11;;;;;;;8.55;5.35;;;;;;;;;;5069889;28;20048;-91
2022/11/23 00:44:39;;;;;;;8.40;5.38;;;;;;;;;;5074330;28;20052;-90
2022/11/23 00:47:07;;;;;;;;;;;;;;;;;;5058388;28;20060;-93
2022/11/23 00:49:40;;;;;;;8.35;5.00;;;;;;;;;;5093898;28;19927;-92
2022/11/23 00:52:07;;;;;;;;;;;;;;;;;;5077327;28;20146;-90
2022/11/23 00:54:35;;;;;;;;;;;;;;;;;;5072920;28;20304;-92
2022/11/23 00:57:07;;;;;;;5.57;3.92;;;;;;;;;;5069250;28;19931;-92
2022/11/23 00:59:42;;;;;;;9.43;5.07;;;;;;;;;;5063308;28;20527;-91
2022/11/23 01:02:10;;;;;;;7.50;4.95;;;;;;;;;;5077100;28;20059;-91
2022/11/23 01:04:42;;;;;;;9.68;4.63;;;;;;;;;;5087759;28;20079;-91
2022/11/23 01:07:10;;;;;;;;;;;;;;;;;;5059946;28;20048;-90
2022/11/23 01:09:39;;;;;;;5.80;4.05;;;;;;;;;;5068989;28;19927;-91
2022/11/23 01:12:07;;;;;;;;;;;;;;;;;;5068940;28;20051;-90
2022/11/23 01:14:35;;;;;;;8.00;5.05;;;;;;;;;;5071341;28;19928;-92
2022/11/23 01:17:06;;;;;;;6.82;4.68;;;;;;;;;;5082860;28;20043;-91
2022/11/23 01:19:35;;;;;;;7.35;4.85;;;;;;;;;;5093374;28;20044;-92
2022/11/23 01:22:02;;;;;;;;;;;;;;;;;;5062378;28;20056;-91
2022/11/23 01:24:35;;;;;;;7.45;4.00;;;;;;;;;;5080905;28;20288;-92
2022/11/23 01:27:03;;;;;;;6.60;4.22;;;;;;;;;;5057036;28;20047;-92
2022/11/23 01:29:30;;;;;;;;;;;;;;;;;;5075142;28;20056;-92
2022/11/23 01:32:00;;;;;;;8.75;3.92;;;;;;;;;;5070988;28;20403;-92
2022/11/23 01:34:35;;;;;;;7.82;4.85;;;;;;;;;;5059650;28;20060;-91
2022/11/23 01:37:08;;;;;;;8.20;4.82;;;;;;;;;;5063449;28;20092;-90
2022/11/23 01:39:40;;;;;;;6.25;4.20;;;;;;;;;;5093902;28;20067;-91
2022/11/23 01:42:08;;;;;;;;;;;;;;;;;;5067914;28;20048;-91
2022/11/23 01:44:41;;;;;;;5.97;4.22;;;;;;;;;;5089324;28;19921;-91
2022/11/23 01:47:09;;;;;;;9.98;4.78;;;;;;;;;;5063684;28;20052;-91
2022/11/23 01:49:47;;;;;;;6.40;4.15;;;;;;;;;;5073001;28;20507;-91
2022/11/23 01:52:22;;;;;;;6.70;4.68;;;;;;;;;;5071556;28;20047;-91
2022/11/23 01:54:55;;;;;;;8.02;4.22;;;;;;;;;;5087119;28;20051;-91
2022/11/23 01:57:31;;;;;;;6.82;4.07;;;;;;;;;;5065081;28;20520;-90
2022/11/23 02:00:04;;;;;;;7.65;5.00;;;;;;;;;;5092497;28;20079;-91
2022/11/23 02:02:42;;;;;;;8.73;5.28;;;;;;;;;;5079940;28;20057;-90
2022/11/23 02:05:12;;;;;;;9.40;5.05;;;;;;;;;;5089233;28;20055;-91
2022/11/23 02:07:45;;;;;;;10.68;5.07;;;;;;;;;;5091621;28;20045;-91
2022/11/23 02:10:18;;;;;;;11.27;4.53;;;;;;;;;;5104429;28;20055;-90
2022/11/23 02:12:47;;;;;;;8.32;5.18;;;;;;;;;;5068178;28;20052;-91
2022/11/23 02:15:20;;;;;;;7.18;4.65;;;;;;;;;;5055985;28;20052;-92
2022/11/23 02:17:50;;;;;;;7.60;4.25;;;;;;;;;;5072881;28;20055;-90
2022/11/23 02:20:25;;;;;;;8.45;5.03;;;;;;;;;;5078036;28;20066;-91
2022/11/23 02:23:02;;;;;;;6.78;4.53;;;;;;;;;;5084858;28;20057;-91
2022/11/23 02:25:40;;;;;;;7.57;4.90;;;;;;;;;;5068430;28;20055;-92
2022/11/23 02:28:11;;;;;;;11.25;4.65;;;;;;;;;;5061208;28;20404;-91
2022/11/23 02:30:39;;;;;;;7.53;4.65;;;;;;;;;;5063806;28;20052;-91
2022/11/23 02:33:13;;;;;;;8.00;4.63;;;;;;;;;;5062130;28;20389;-89
2022/11/23 02:35:41;;;;;;;;;;;;;;;;;;5061577;28;20059;-91
2022/11/23 02:38:14;;;;;;;6.13;4.07;;;;;;;;;;5068118;28;19920;-89
2022/11/23 02:40:47;;;;;;;6.80;4.05;;;;;;;;;;5085514;28;20051;-92
2022/11/23 02:43:24;;;;;;;8.75;5.13;;;;;;;;;;5069094;28;20063;-92
2022/11/23 02:46:12;;;;;;;7.65;4.68;;;;;;;;;;5059473;28;20072;-92
2022/11/23 02:48:39;;;;;;;9.25;4.82;;;;;;;;;;5061311;28;20048;-92
2022/11/23 02:51:07;;;;;;;;;;;;;;;;;;5068435;28;20044;-92
2022/11/23 02:53:35;;;;;;;8.77;5.03;;;;;;;;;;5073744;28;19947;-90
2022/11/23 02:56:02;;;;;;;;;;;;;;;;;;5089924;28;20044;-90
2022/11/23 02:58:36;;;;;;;6.32;4.20;;;;;;;;;;5061950;28;19931;-90
2022/11/23 03:01:07;;;;;;;6.88;4.88;;;;;;;;;;5097262;28;20048;-91
2022/11/23 03:03:39;;;;;;;6.20;4.32;;;;;;;;;;5063356;28;20052;-90
2022/11/23 03:06:07;;;;;;;;;;;;;;;;;;5091266;28;20047;-91
2022/11/23 03:08:35;;;;;;;9.32;4.13;;;;;;;;;;5063251;28;20380;-91
2022/11/23 03:11:03;;;;;;;5.90;3.90;;;;;;;;;;5071192;28;20060;-91
2022/11/23 03:13:37;;;;;;;7.25;4.18;;;;;;;;;;5087982;28;20049;-91
2022/11/23 03:16:06;;;;;;;9.88;5.07;;;;;;;;;;5073006;28;20075;-91
2022/11/23 03:18:33;;;;;;;;;;;;;;;;;;5093108;28;20397;-91
2022/11/23 03:21:07;;;;;;;6.95;3.55;;;;;;;;;;5073005;28;19920;-91
2022/11/23 03:23:40;;;;;;;8.20;4.15;;;;;;;;;;5079085;28;20055;-92
2022/11/23 03:26:11;;;;;;;7.40;4.72;;;;;;;;;;5067669;28;20052;-90
2022/11/23 03:28:46;;;;;;;6.30;4.15;;;;;;;;;;5074744;28;20052;-90
2022/11/23 03:31:19;;;;;;;6.63;4.30;;;;;;;;;;5076346;28;20063;-90
2022/11/23 03:33:52;;;;;;;6.63;4.18;;;;;;;;;;5087704;28;20048;-91
2022/11/23 03:36:21;;;;;;;6.97;4.63;;;;;;;;;;5095251;28;20055;-92
2022/11/23 03:38:48;;;;;;;;;;;;;;;;;;5102429;28;20071;-92
2022/11/23 03:41:41;;;;;;;5.95;3.70;;;;;;;;;;5083375;28;19920;-91
2022/11/23 03:44:11;;;;;;;7.70;4.40;;;;;;;;;;5068754;28;20048;-93
2022/11/23 03:46:39;;;;;;;9.25;4.80;;;;;;;;;;5074817;28;20430;-90
2022/11/23 03:49:12;;;;;;;9.38;5.63;;;;;;;;;;5063408;28;20246;-91
2022/11/23 03:51:45;;;;;;;7.10;4.25;;;;;;;;;;5074589;28;20067;-90
2022/11/23 03:54:14;;;;;;;7.80;4.68;;;;;;;;;;5067479;28;20385;-89
2022/11/23 03:56:48;;;;;;;7.22;4.88;;;;;;;;;;5059000;28;20493;-91
2022/11/23 03:59:17;;;;;;;6.50;4.07;;;;;;;;;;5106575;28;20052;-92
2022/11/23 04:01:50;;;;;;;7.43;4.30;;;;;;;;;;5057922;28;20511;-91
2022/11/23 04:04:27;;;;;;;6.95;4.22;;;;;;;;;;5080742;28;20048;-91
2022/11/23 04:07:20;;;;;;;7.75;4.40;;;;;;;;;;5077979;28;20056;-90
2022/11/23 04:09:51;;;;;;;6.80;4.60;;;;;;;;;;5074292;28;20070;-92
2022/11/23 04:12:34;;;;;;;7.32;4.30;;;;;;;;;;5054647;28;20516;-92
2022/11/23 04:15:03;;;;;;;7.25;4.82;;;;;;;;;;5055340;28;20162;-91
2022/11/23 04:17:36;;;;;;;5.78;4.00;;;;;;;;;;5059558;28;20056;-90
2022/11/23 04:20:09;;;;;;;6.68;4.40;;;;;;;;;;5054510;28;20052;-91
2022/11/23 04:22:43;;;;;;;6.50;4.32;;;;;;;;;;5100820;28;20059;-91
2022/11/23 04:25:16;;;;;;;8.50;4.20;;;;;;;;;;5072824;28;20309;-92
2022/11/23 04:27:51;;;;;;;5.43;3.67;;;;;;;;;;5085241;28;20056;-91
2022/11/23 04:30:26;;;;;;;5.88;4.15;;;;;;;;;;5075481;28;20048;-92
2022/11/23 04:32:56;;;;;;;6.82;4.78;;;;;;;;;;5077832;28;20056;-92
2022/11/23 04:35:30;;;;;;;6.05;3.95;;;;;;;;;;5073197;28;20044;-91
2022/11/23 04:37:58;;;;;;;13.50;5.18;;;;;;;;;;5080074;28;20058;-92
2022/11/23 04:40:32;;;;;;;7.07;4.30;;;;;;;;;;5075828;28;20054;-91
2022/11/23 04:43:08;;;;;;;5.90;3.42;;;;;;;;;;5061693;28;20052;-93
2022/11/23 04:45:42;;;;;;;6.30;3.90;;;;;;;;;;5071031;28;20044;-92
2022/11/23 04:48:19;;;;;;;8.52;4.63;;;;;;;;;;5064600;28;20040;-93
2022/11/23 04:50:48;;;;;;;7.40;4.43;;;;;;;;;;5073777;28;20056;-92
2022/11/23 04:53:26;;;;;;;7.32;4.00;;;;;;;;;;5074416;28;20052;-91
2022/11/23 04:55:54;;;;;;;7.05;4.35;;;;;;;;;;5076145;28;20049;-91
2022/11/23 04:58:29;;;;;;;4.97;3.50;;;;;;;;;;5087955;28;20059;-91
2022/11/23 05:00:59;;;;;;;6.10;3.67;;;;;;;;;;5071527;28;20044;-92
2022/11/23 05:03:34;;;;;;;6.15;3.95;;;;;;;;;;5086063;28;20052;-92
2022/11/23 05:06:06;;;;;;;7.25;4.18;;;;;;;;;;5077069;28;20048;-91
2022/11/23 05:08:41;;;;;;;5.70;4.00;;;;;;;;;;5094111;28;20044;-92
2022/11/23 05:11:25;;;;;;;6.80;3.95;;;;;;;;;;5102236;28;20052;-90
2022/11/23 05:13:55;;;;;;;5.93;3.70;;;;;;;;;;5072227;28;20055;-91
2022/11/23 05:16:32;;;;;;;6.03;3.92;;;;;;;;;;5110924;28;20091;-92
2022/11/23 05:18:59;;;;;;;5.63;3.83;;;;;;;;;;5057795;28;20053;-93
2022/11/23 05:21:33;;;;;;;5.78;3.80;;;;;;;;;;5060211;28;20516;-92
2022/11/23 05:24:00;;;;;;;;;;;;;;;;;;5065929;28;20052;-92
2022/11/23 05:26:29;;;;;;;5.57;3.58;;;;;;;;;;5070411;28;19924;-92
2022/11/23 05:29:03;;;;;;;5.13;3.70;;;;;;;;;;5064792;28;20404;-91
2022/11/23 05:31:32;;;;;;;8.35;4.30;;;;;;;;;;5074585;28;20052;-92
2022/11/23 05:34:05;;;;;;;5.75;3.63;;;;;;;;;;5068521;28;20059;-91
2022/11/23 05:36:45;;;;;;;5.45;3.60;;;;;;;;;;5085023;28;20048;-91
2022/11/23 05:39:14;;;;;;;6.90;4.03;;;;;;;;;;5066379;28;20052;-92
2022/11/23 05:41:43;;;;;;;6.53;3.75;;;;;;;;;;5060980;28;20063;-92
2022/11/23 05:44:24;;;;;;;5.63;3.85;;;;;;;;;;5099769;28;20044;-92
2022/11/23 05:46:59;;;;;;;5.65;3.75;;;;;;;;;;5068096;28;20504;-90
2022/11/23 05:49:31;;;;;;;4.68;3.40;;;;;;;;;;5098232;28;20496;-91
2022/11/23 05:51:59;;;;;;;7.03;3.80;;;;;;;;;;5058749;28;20048;-92
2022/11/23 05:54:33;;;;;;;5.95;3.70;;;;;;;;;;5056310;28;20052;-92
2022/11/23 05:57:14;;;;;;;7.18;3.63;;;;;;;;;;5065654;28;20515;-92
2022/11/23 05:59:49;;;;;;;5.32;3.63;;;;;;;;;;5066969;28;20048;-92
2022/11/23 06:02:29;;;;;;;6.05;3.70;;;;;;;;;;5065651;28;20048;-92
2022/11/23 06:05:01;;;;;;;4.32;2.95;;;;;;;;;;5083705;28;20515;-92
2022/11/23 06:07:42;;;;;;;5.60;3.65;;;;;;;;;;5071146;28;20052;-92
2022/11/23 06:10:16;;;;;;;5.72;3.40;;;;;;;;;;5098370;28;20045;-91
2022/11/23 06:12:48;;;;;;;6.63;4.10;;;;;;;;;;5085611;28;20055;-91
2022/11/23 06:15:23;;;;;;;6.85;3.58;;;;;;;;;;5081164;28;20051;-92
2022/11/23 06:18:00;;;;;;;6.40;3.95;;;;;;;;;;5072550;28;20055;-93
2022/11/23 06:20:36;;;;;;;6.30;3.60;;;;;;;;;;5070190;28;20048;-91
2022/11/23 06:23:09;;;;;;;5.68;3.53;;;;;;;;;;5080838;28;20055;-91
2022/11/23 06:25:42;;;;;;;6.05;3.88;;;;;;;;;;5069366;28;20111;-92
2022/11/23 06:28:26;;;;;;;6.25;3.65;;;;;;;;;;5100392;27;20401;-90
2022/11/23 06:30:55;;;;;;;6.32;3.72;;;;;;;;;;5073906;28;20045;-92
2022/11/23 06:33:25;;;;;;;5.05;3.30;;;;;;;;;;5110683;27;20501;-90
2022/11/23 06:35:59;;;;;;;5.32;3.40;;;;;;;;;;5074100;28;20044;-93
2022/11/23 06:38:38;;;;;;;7.47;3.65;;;;;;;;;;5073577;28;20052;-92
2022/11/23 06:41:20;;;;;;;4.03;2.95;;;;;;;;;;5080230;28;20055;-92
2022/11/23 06:43:53;;;;;;;5.60;3.85;;;;;;;;;;5106345;28;20048;-93
2022/11/23 06:46:36;;;;;;;7.00;4.10;;;;;;;;;;5067528;28;20060;-92
2022/11/23 06:49:10;;;;;;;4.25;3.15;;;;;;;;;;5070526;28;20052;-90
2022/11/23 06:51:46;;;;;;;5.18;3.13;;;;;;;;;;5072670;28;20054;-92
2022/11/23 06:54:19;;;;;;;4.18;3.05;;;;;;;;;;5070537;28;20056;-93
2022/11/23 06:56:47;;;;;;;;;;;;;;;;;;5074294;28;20052;-91
2022/11/23 06:59:20;;;;;;;4.78;3.15;;;;;;;;;;5061222;28;19921;-92
2022/11/23 07:01:49;;;;;;;5.07;3.38;;;;;;;;;;5073578;28;20048;-92
2022/11/23 07:04:18;;;;;;;5.22;3.25;;;;;;;;;;5067945;28;20048;-93
2022/11/23 07:06:50;;;;;;;6.40;3.42;;;;;;;;;;5075412;28;20063;-90
2022/11/23 07:09:28;;;;;;;5.35;3.33;;;;;;;;;;5094234;28;20048;-92
2022/11/23 07:12:27;;;;;;;4.22;3.03;;;;;;;;;;5067090;28;20420;-93
2022/11/23 07:15:01;;;;;;;5.40;3.28;;;;;;;;;;5083912;28;20049;-93
2022/11/23 07:17:37;;;;;;;5.68;3.78;;;;;;;;;;5071823;28;20078;-92
2022/11/23 07:20:08;;;;;;;4.93;3.33;;;;;;;;;;5094167;28;20489;-91
2022/11/23 07:22:36;;;;;;;6.53;3.40;;;;;;;;;;5078969;28;20055;-91
2022/11/23 07:25:10;;;;;;;4.90;2.88;;;;;;;;;;5077809;28;20052;-91
2022/11/23 07:27:43;;;;;;;6.25;3.53;;;;;;;;;;5081069;28;20388;-91
2022/11/23 07:30:16;;;;;;;7.75;3.40;;;;;;;;;;5080583;28;20045;-92
2022/11/23 07:32:49;;;;;;;5.13;3.10;;;;;;;;;;5098348;28;20064;-91
2022/11/23 07:35:19;;;;;;;5.35;3.42;;;;;;;;;;5104478;28;20048;-93
2022/11/23 07:37:52;;;;;;;6.22;3.38;;;;;;;;;;5064155;28;20389;-92
2022/11/23 07:40:26;;;;;;;5.50;3.47;;;;;;;;;;5113010;28;20746;-92
2022/11/23 07:42:59;;;;;;;5.93;3.40;;;;;;;;;;5061534;28;20428;-91
2022/11/23 07:45:27;;;;;;;4.60;3.20;;;;;;;;;;5085804;28;20048;-93
2022/11/23 07:48:01;;;;;;;4.35;3.17;;;;;;;;;;5063754;28;20062;-93
2022/11/23 07:50:30;;;;;;;5.05;3.25;;;;;;;;;;5070618;28;20504;-92
2022/11/23 07:52:58;;;;;;;7.43;3.28;;;;;;;;;;5084263;28;20056;-92
2022/11/23 07:55:32;;;;;;;5.55;3.42;;;;;;;;;;5091993;28;20047;-93
2022/11/23 07:58:00;;;;;;;4.05;2.78;;;;;;;;;;5072598;28;20052;-91
2022/11/23 08:00:32;;;;;;;6.82;3.75;;;;;;;;;;5071406;28;20049;-92
2022/11/23 08:03:01;;;;;;;6.60;3.50;;;;;;;;;;5101605;28;20044;-93
2022/11/23 08:05:35;;;;;;;5.78;3.75;;;;;;;;;;5099699;28;20051;-92
2022/11/23 08:08:08;;;;;;;5.45;3.00;;;;;;;;;;5066821;28;20535;-93
2022/11/23 08:10:36;;;;;;;4.55;3.25;;;;;;;;;;5070359;28;20420;-92
2022/11/23 08:13:03;;;;;;;;;;;;;;;;;;5084462;28;20040;-91
2022/11/23 08:15:31;;;;;;;;;;;;;;;;;;5074995;28;19931;-92
2022/11/23 08:18:04;;;;;;;6.10;3.00;;;;;;;;;;5086315;28;20373;-93
2022/11/23 08:20:33;;;;;;;4.32;3.03;;;;;;;;;;5078561;28;20044;-90
2022/11/23 08:23:02;;;;;;;4.15;3.20;;;;;;;;;;5072011;28;20068;-93
2022/11/23 08:25:30;;;;;;;5.55;2.80;;;;;;;;;;5094969;28;20058;-92
2022/11/23 08:28:04;;;;;;;4.30;2.90;;;;;;;;;;5080697;28;20404;-92
2022/11/23 08:30:32;;;;;;;5.47;2.85;;;;;;;;;;5091234;28;20051;-92
2022/11/23 08:33:06;;;;;;;4.30;3.10;;;;;;;;;;5090874;28;20040;-92
2022/11/23 08:35:34;;;;;;;5.50;3.63;;;;;;;;;;5078518;28;20060;-93
2022/11/23 08:38:09;;;;;;;6.10;3.25;;;;;;;;;;5089735;28;20067;-92
2022/11/23 08:40:41;;;;;;;4.72;2.72;;;;;;;;;;5106975;27;20070;-93
2022/11/23 08:43:14;;;;;;;5.43;2.85;;;;;;;;;;5075627;28;20048;-92
2022/11/23 08:45:47;;;;;;;4.70;3.20;;;;;;;;;;5071440;28;20049;-91
2022/11/23 08:48:20;;;;;;;5.05;2.92;;;;;;;;;;5103288;27;20063;-92
2022/11/23 08:50:47;;;;;;;;;;;;;;;;;;5104674;27;20048;-91
2022/11/23 08:53:15;;;;;;;;;;;;;;;;;;5102618;27;19955;-93
2022/11/23 08:55:42;;;;;;;;;;;;;;;;;;5095510;28;19920;-92
2022/11/23 08:58:10;;;;;;;;;;;;;;;;;;5067254;28;20292;-92
2022/11/23 09:00:44;;;;;;;3.92;2.67;;;;;;;;;;5062792;28;19920;-92
2022/11/23 09:03:12;;;;;;;7.68;3.17;;;;;;;;;;5078782;28;20049;-90
2022/11/23 09:05:40;;;;;;;4.30;2.97;;;;;;;;;;5070731;28;20060;-91
2022/11/23 09:08:08;;;;;;;;;;;;;;;;;;5078665;28;20051;-93
2022/11/23 09:10:36;;;;;;;4.82;3.03;;;;;;;;;;5082098;28;19927;-91
2022/11/23 09:13:09;;;;;;;5.53;3.08;;;;;;;;;;5073054;28;20060;-86
2022/11/23 09:15:42;;;;;;;4.07;2.75;;;;;;;;;;5066490;28;20052;-86
2022/11/23 09:18:10;;;;;;;;;;;;;;;;;;5081803;28;20052;-89
2022/11/23 09:20:40;;;;;;;4.00;2.70;;;;;;;;;;5085403;28;19928;-88
2022/11/23 09:23:09;;;;;;;4.35;2.70;;;;;;;;;;5056498;28;20071;-90
2022/11/23 09:25:36;;;;;;;3.85;2.58;;;;;;;;;;5052789;28;20052;-90
2022/11/23 09:28:04;;;;;;;;;;;;;;;;;;5058269;28;20068;-89
2022/11/23 09:30:32;;;;;;;4.85;2.95;;;;;;;;;;5074880;28;19927;-84
2022/11/23 09:33:05;;;;;;;5.10;3.30;;;;;;;;;;5068541;28;20055;-87
2022/11/23 09:35:37;;;;;;;6.28;3.10;;;;;;;;;;5053446;28;20052;-86
2022/11/23 09:38:12;;;;;;;3.83;3.00;;;;;;;;;;5051695;28;20589;-87
2022/11/23 09:40:44;;;;;;;6.53;3.47;;;;;;;;;;5059189;28;20052;-86
2022/11/23 09:43:27;;;;;;;5.50;3.13;;;;;;;;;;5069423;28;20040;-88
2022/11/23 09:45:57;;;;;;;4.45;2.85;;;;;;;;;;5054702;28;20056;-84
2022/11/23 09:48:36;;;;;;;6.32;3.35;;;;;;;;;;5057800;28;20056;-85
2022/11/23 09:51:05;;;;;;;3.78;2.67;;;;;;;;;;5059164;28;20052;-89
2022/11/23 09:53:37;;;;;;;4.72;2.95;;;;;;;;;;5055002;28;20064;-83
2022/11/23 09:56:05;;;;;;;5.60;3.63;;;;;;;;;;5053608;28;20147;-88
2022/11/23 09:58:39;;;;;;;4.85;3.20;;;;;;;;;;5065810;28;20052;-87
2022/11/23 10:01:11;;;;;;;4.30;3.03;;;;;;;;;;5066274;28;20055;-86
2022/11/23 10:03:45;;;;;;;4.07;2.90;;;;;;;;;;5043949;28;20078;-85
2022/11/23 10:06:19;;;;;;;5.30;3.10;;;;;;;;;;5048550;28;20070;-89
2022/11/23 10:08:54;;;;;;;4.03;2.75;;;;;;;;;;5048755;28;20404;-88
2022/11/23 10:11:34;;;;;;;4.22;2.88;;;;;;;;;;5088295;28;20052;-86
2022/11/23 10:14:08;;;;;;;8.05;4.35;;;;;;;;;;5051931;28;20928;-86
2022/11/23 10:16:40;;;;;;;10.05;5.25;;;;;;;;;;5048033;28;20422;-88
2022/11/23 10:19:12;;;;;;;8.77;5.00;;;;;;;;;;5081146;28;20451;-85
2022/11/23 10:21:49;;;;;;;7.57;4.47;;;;;;;;;;5049664;28;20970;-88
2022/11/23 10:24:27;;;;;;;8.75;4.93;;;;;;;;;;5051279;28;20430;-88
2022/11/23 10:26:55;;;;;;;11.70;5.40;;;;;;;;;;5057924;28;20417;-88
2022/11/23 10:29:29;;;;;;;11.15;5.80;;;;;;;;;;5086288;28;20438;-90
2022/11/23 10:32:04;;;;;;;11.82;6.53;;;;;;;;;;5080310;28;20790;-89
2022/11/23 10:34:44;;;;;;;14.15;6.28;;;;;;;;;;5059760;28;20445;-89
2022/11/23 10:37:12;;;;;;;12.02;6.30;;;;;;;;;;5051238;28;20441;-89
2022/11/23 10:39:41;;;;;;;12.38;6.45;;;;;;;;;;5084622;28;20427;-88
2022/11/23 10:42:18;;;;;;;14.35;7.40;;;;;;;;;;5066054;28;20928;-88
2022/11/23 10:44:47;;;;;;;15.25;7.15;;;;;;;;;;5069801;28;20418;-86
2022/11/23 10:47:37;;;;;;;14.82;7.40;;;;;;;;;;5046311;28;20424;-86
2022/11/23 10:50:20;;;;;;;13.98;7.50;;;;;;;;;;5053819;28;20422;-87
2022/11/23 10:52:51;;;;;;;11.18;6.75;;;;;;;;;;5080883;28;20406;-86
2022/11/23 10:55:23;;;;;;;10.68;5.07;;;;;;;;;;5052614;28;20059;-89
2022/11/23 10:57:51;;;;;;;9.48;4.63;;;;;;;;;;5064806;28;20114;-88
2022/11/23 11:00:26;;;;;;;10.65;4.20;;;;;;;;;;5057569;28;20497;-89
2022/11/23 11:02:54;;;;;;;7.88;4.15;;;;;;;;;;5069245;28;20493;-89
2022/11/23 11:05:29;;;;;;;6.85;3.75;;;;;;;;;;5049721;28;20052;-89
2022/11/23 11:07:58;;;;;;;6.85;3.75;;;;;;;;;;5068286;28;20672;-88
2022/11/23 11:10:33;;;;;;;6.97;3.65;;;;;;;;;;5068788;28;20064;-86
2022/11/23 11:13:00;;;;;;;8.55;3.55;;;;;;;;;;5055331;28;20051;-90
2022/11/23 11:15:28;;;;;;;7.22;4.03;;;;;;;;;;5046757;28;20056;-86
2022/11/23 11:18:01;;;;;;;8.00;3.67;;;;;;;;;;5045575;28;21360;-84
2022/11/23 11:20:30;;;;;;;;;;;;;;;;;;5048482;28;20059;-88
2022/11/23 11:22:58;;;;;;;7.13;3.00;;;;;;;;;;5081718;28;20128;-85
2022/11/23 11:25:27;;;;;;;7.35;4.10;;;;;;;;;;5068691;28;20055;-89
2022/11/23 11:28:02;;;;;;;7.80;3.47;;;;;;;;;;5046680;28;20067;-85
2022/11/23 11:30:36;;;;;;;5.82;3.40;;;;;;;;;;5085050;28;20204;-88
2022/11/23 11:33:11;;;;;;;6.88;3.65;;;;;;;;;;5057128;28;20051;-89
2022/11/23 11:35:40;;;;;;;6.30;3.58;;;;;;;;;;5054131;28;20052;-89
2022/11/23 11:38:11;;;;;;;5.05;3.30;;;;;;;;;;5052236;28;20463;-86
2022/11/23 11:40:43;;;;;;;6.30;3.38;;;;;;;;;;5068439;28;20067;-84
2022/11/23 11:43:20;;;;;;;6.07;3.47;;;;;;;;;;5044274;28;20063;-84
2022/11/23 11:45:54;;;;;;;3.95;2.70;;;;;;;;;;5066915;28;20052;-86
2022/11/23 11:48:24;;;;;;;5.18;2.97;;;;;;;;;;5086640;27;20052;-89
2022/11/23 11:50:53;;;;;;;4.97;2.83;;;;;;;;;;5053502;28;20386;-91
2022/11/23 11:53:23;;;;;;;4.85;2.55;;;;;;;;;;5090994;28;20048;-88
2022/11/23 11:55:53;;;;;;;5.57;3.25;;;;;;;;;;5086304;27;20826;-88
2022/11/23 11:58:28;;;;;;;5.82;3.25;;;;;;;;;;5069356;28;20050;-90
2022/11/23 12:01:07;;;;;;;5.05;2.78;;;;;;;;;;5063817;28;20044;-89
2022/11/23 12:03:40;;;;;;;4.05;2.63;;;;;;;;;;5044230;28;20067;-87
2022/11/23 12:06:17;;;;;;;6.30;2.83;;;;;;;;;;5051937;28;20636;-87
2022/11/23 12:08:47;;;;;;;4.10;2.33;;;;;;;;;;5082898;28;20090;-85
2022/11/23 12:11:19;;;;;;;5.82;2.60;;;;;;;;;;5084704;28;20051;-86
2022/11/23 12:13:59;;;;;;;4.05;2.42;;;;;;;;;;5057607;28;20059;-90
2022/11/23 12:16:37;;;;;;;5.22;3.00;;;;;;;;;;5088297;27;20587;-87
2022/11/23 12:19:14;;;;;;;3.65;2.15;;;;;;;;;;5083114;28;21040;-87
2022/11/23 12:22:02;;;;;;;4.15;2.50;;;;;;;;;;5052273;28;20512;-88
2022/11/23 12:24:46;;;;;;;4.47;2.85;;;;;;;;;;5049950;28;20048;-85
2022/11/23 12:27:20;;;;;;;4.32;2.22;;;;;;;;;;5065732;28;20060;-87
2022/11/23 12:30:01;;;;;;;4.10;2.35;;;;;;;;;;5050356;28;20054;-87
2022/11/23 12:32:34;;;;;;;;;;;;;;;;;;5051366;28;20064;-87
2022/11/23 12:35:07;;;;;;;;;;;;;;;;;;5052857;28;19928;-90
2022/11/23 12:37:39;;;;;;;;;;;;;;;;;;5071490;28;20010;-90
2022/11/23 12:40:21;;;;;;;5.78;2.95;;;;;;;;;;5068190;28;19950;-91
2022/11/23 12:42:51;;;;;;;3.78;2.50;;;;;;;;;;5064764;28;20048;-90
2022/11/23 12:45:29;;;;;;;4.88;2.22;;;;;;;;;;5083938;28;20058;-85
2022/11/23 12:48:12;;;;;;;4.53;2.50;;;;;;;;;;5084010;27;20056;-90
2022/11/23 12:50:47;;;;;;;3.88;2.15;;;;;;;;;;5084284;28;20056;-88
2022/11/23 12:53:26;;;;;;;3.55;2.13;;;;;;;;;;5067679;28;20058;-90
2022/11/23 12:55:59;;;;;;;4.97;2.30;;;;;;;;;;5068366;28;20098;-89
2022/11/23 12:58:33;;;;;;;4.18;2.08;;;;;;;;;;5068918;28;20055;-90
2022/11/23 13:01:04;;;;;;;4.35;2.35;;;;;;;;;;5047065;28;20059;-86
2022/11/23 13:03:50;;;;;;;7.10;2.80;;;;;;;;;;5063309;28;20056;-88
2022/11/23 13:06:44;;;;;;;3.85;2.40;;;;;;;;;;5047523;28;20755;-90
2022/11/23 13:09:22;;;;;;;4.93;2.50;;;;;;;;;;5060960;28;20070;-87
2022/11/23 13:12:05;;;;;;;4.28;2.30;;;;;;;;;;5078821;28;20994;-86
2022/11/23 13:14:42;;;;;;;4.80;2.30;;;;;;;;;;5062539;28;20461;-85
2022/11/23 13:17:23;;;;;;;4.25;2.35;;;;;;;;;;5053432;28;20766;-87
2022/11/23 13:20:09;;;;;;;4.35;2.60;;;;;;;;;;5066043;28;21528;-89
2022/11/23 13:22:39;;;;;;;5.70;2.85;;;;;;;;;;5061264;28;20060;-89
2022/11/23 13:25:21;;;;;;;7.05;2.50;;;;;;;;;;5069354;28;20078;-85
2022/11/23 13:27:56;;;;;;;3.47;2.08;;;;;;;;;;5058549;28;20106;-86
2022/11/23 13:30:26;;;;;;;5.97;2.25;;;;;;;;;;5051345;28;20060;-89
2022/11/23 13:32:59;;;;;;;3.70;2.53;;;;;;;;;;5078088;28;20052;-88
2022/11/23 13:35:47;;;;;;;6.13;2.80;;;;;;;;;;5054602;28;20064;-89
2022/11/23 13:38:25;;;;;;;4.50;2.30;;;;;;;;;;5053320;28;20059;-87
2022/11/23 13:40:53;;;;;;;3.95;2.15;;;;;;;;;;5036040;28;20056;-85
2022/11/23 13:43:28;;;;;;;3.40;2.35;;;;;;;;;;5069281;28;20962;-86
2022/11/23 13:46:11;;;;;;;4.43;2.35;;;;;;;;;;5055072;28;20063;-85
2022/11/23 13:48:45;;;;;;;3.42;2.30;;;;;;;;;;5071484;28;20052;-88
2022/11/23 13:51:12;;;;;;;5.35;2.53;;;;;;;;;;5046571;28;20055;-83
2022/11/23 13:53:41;;;;;;;4.93;2.75;;;;;;;;;;5045935;28;20048;-88
2022/11/23 13:56:18;;;;;;;4.18;2.53;;;;;;;;;;5050233;28;20071;-88
2022/11/23 13:58:52;;;;;;;4.22;2.38;;;;;;;;;;5076041;28;20059;-88
2022/11/23 14:01:44;;;;;;;5.15;2.72;;;;;;;;;;5071761;28;20059;-90
2022/11/23 14:04:23;;;;;;;4.80;2.60;;;;;;;;;;5084215;28;20512;-90
2022/11/23 14:06:58;;;;;;;4.03;2.50;;;;;;;;;;5041353;28;20068;-85
2022/11/23 14:09:29;;;;;;;3.90;2.45;;;;;;;;;;5050817;28;20067;-89
2022/11/23 14:12:03;;;;;;;3.92;2.50;;;;;;;;;;5068349;28;20044;-89
2022/11/23 14:14:33;;;;;;;3.33;2.20;;;;;;;;;;5065334;28;20051;-90
2022/11/23 14:17:15;;;;;;;6.63;2.40;;;;;;;;;;5053249;28;20052;-89
2022/11/23 14:20:03;;;;;;;6.18;2.45;;;;;;;;;;5051927;28;20048;-90
2022/11/23 14:22:43;;;;;;;4.53;2.30;;;;;;;;;;5074720;28;20059;-88
2022/11/23 14:25:22;;;;;;;4.13;2.28;;;;;;;;;;5064914;28;20051;-85
2022/11/23 14:27:56;;;;;;;4.30;2.28;;;;;;;;;;5056732;28;20063;-86
2022/11/23 14:30:30;;;;;;;4.57;2.30;;;;;;;;;;5047361;28;20115;-89
2022/11/23 14:33:13;;;;;;;3.85;2.33;;;;;;;;;;5048333;28;20072;-87
2022/11/23 14:35:46;;;;;;;5.82;2.40;;;;;;;;;;5033333;28;20056;-84
2022/11/23 14:38:39;;;;;;;4.47;2.47;;;;;;;;;;5047480;28;20472;-87
2022/11/23 14:41:14;;;;;;;2.90;1.90;;;;;;;;;;5074629;28;20028;-88
2022/11/23 14:43:47;;;;;;;4.53;2.50;;;;;;;;;;5053676;28;20059;-89
2022/11/23 14:46:17;;;;;;;5.13;2.17;;;;;;;;;;5051683;28;20060;-87
2022/11/23 14:48:45;;;;;;;4.40;2.10;;;;;;;;;;5053194;28;20060;-87
2022/11/23 14:51:17;;;;;;;5.05;2.40;;;;;;;;;;5049125;28;20420;-85
2022/11/23 14:53:51;;;;;;;5.13;2.65;;;;;;;;;;5079721;28;21338;-85
2022/11/23 14:56:21;;;;;;;3.33;2.15;;;;;;;;;;5083302;28;20433;-83
2022/11/23 14:58:50;;;;;;;5.15;2.47;;;;;;;;;;5080114;28;20062;-86
2022/11/23 15:01:20;;;;;;;3.10;1.98;;;;;;;;;;5053620;28;20078;-87
2022/11/23 15:03:56;;;;;;;4.07;2.10;;;;;;;;;;5050261;28;20539;-87
2022/11/23 15:06:32;;;;;;;3.50;2.30;;;;;;;;;;5060617;28;20059;-89
2022/11/23 15:09:04;;;;;;;4.97;2.38;;;;;;;;;;5036947;28;20511;-84
2022/11/23 15:11:38;;;;;;;5.10;2.30;;;;;;;;;;5070567;28;20051;-84
2022/11/23 15:14:16;;;;;;;5.35;2.53;;;;;;;;;;5065131;28;20056;-86
2022/11/23 15:16:49;;;;;;;5.88;2.42;;;;;;;;;;5060809;28;20048;-85
2022/11/23 15:19:17;;;;;;;;;;;;;;;;;;5053761;28;22009;-88
2022/11/23 15:21:45;;;;;;;;;;;;;;;;;;5043076;28;19939;-88
2022/11/23 15:24:22;;;;;;;4.90;2.13;;;;;;;;;;5076049;28;20456;-88
2022/11/23 15:26:50;;;;;;;3.97;2.13;;;;;;;;;;5056567;28;20888;-89
2022/11/23 15:29:28;;;;;;;3.78;2.30;;;;;;;;;;5092884;28;20052;-86